Albany, Texas
Current Conditions -  °F | °C
As of 9:35 PM on Sunday 23 Nov 2014 (Local Time) from KBKD Reporting Station
Clear Clear  
Wind Chill: 48°   Ceiling: Unl
Heat Index: 50°   Visibility: 7mi
Dew Point: 35°   Wind: 5mph
Humidity: 58%   Direction: 330°NNW
Pressure: 29.85"   Gusts: NA
Location:  32.72°N, 99.3°W
Report Text: KBKD 240335Z AUTO 33004KT 7SM CLR 10/02 A2985 RMK AO2 T00980018
Loading
Personal Weather Stations






























Interactive Weather Map New forecast layout! Learn more

10-Day Weather Forecast

Advertisements
Track Severe Weather on mobile